createdAt,value
2023-01-22T00:02:11.706Z,4.93
2023-01-22T00:04:40.088Z,4.50
2023-01-22T00:07:08.932Z,4.57
2023-01-22T00:09:37.203Z,4.00
2023-01-22T00:12:10.970Z,3.53
2023-01-22T00:14:44.210Z,3.77
2023-01-22T00:17:14.617Z,3.20
2023-01-22T00:19:43.506Z,3.20
2023-01-22T00:22:12.891Z,3.50
2023-01-22T00:24:42.229Z,3.00
2023-01-22T00:27:12.612Z,3.27
2023-01-22T00:29:41.441Z,3.20
2023-01-22T00:32:12.609Z,3.20
2023-01-22T00:34:40.846Z,2.70
2023-01-22T00:37:09.254Z,3.27
2023-01-22T00:39:38.303Z,3.00
2023-01-22T00:42:07.035Z,3.40
2023-01-22T00:44:37.199Z,3.03
2023-01-22T00:47:06.116Z,3.03
2023-01-22T00:49:34.801Z,3.30
2023-01-22T00:52:03.830Z,3.73
2023-01-22T00:54:32.470Z,3.63
2023-01-22T00:57:01.207Z,3.17
2023-01-22T00:59:30.052Z,3.50
2023-01-22T01:02:00.530Z,3.50
2023-01-22T01:04:29.381Z,2.63
2023-01-22T01:06:57.870Z,4.57
2023-01-22T01:09:26.485Z,3.07
2023-01-22T01:11:54.899Z,3.17
2023-01-22T01:14:30.616Z,3.10
2023-01-22T01:17:00.709Z,2.50
2023-01-22T01:19:47.757Z,2.63
2023-01-22T01:22:16.403Z,3.60
2023-01-22T01:24:47.841Z,3.20
2023-01-22T01:27:16.796Z,4.40
2023-01-22T01:29:45.383Z,4.00
2023-01-22T01:32:15.197Z,3.20
2023-01-22T01:34:44.165Z,3.90
2023-01-22T01:37:13.358Z,2.83
2023-01-22T01:39:41.857Z,3.93
2023-01-22T01:42:10.670Z,3.80
2023-01-22T01:44:41.623Z,4.20
2023-01-22T01:51:13.895Z,3.20
2023-01-22T01:53:44.440Z,3.43
2023-01-22T01:56:16.177Z,3.53
2023-01-22T01:58:46.750Z,3.83
2023-01-22T02:01:16.701Z,3.80
2023-01-22T02:03:45.804Z,3.77
2023-01-22T02:06:17.348Z,2.70
2023-01-22T02:08:48.226Z,3.20
2023-01-22T02:11:18.770Z,3.70
2023-01-22T02:13:51.434Z,3.40
2023-01-22T02:16:20.481Z,3.20
2023-01-22T02:18:49.023Z,3.43
2023-01-22T02:21:35.747Z,3.20
2023-01-22T02:24:04.885Z,3.63
2023-01-22T02:26:33.948Z,3.73
2023-01-22T02:29:02.790Z,3.07
2023-01-22T02:31:31.532Z,3.80
2023-01-22T02:34:02.707Z,3.77
2023-01-22T02:36:33.804Z,3.97
2023-01-22T02:39:03.141Z,5.57
2023-01-22T02:41:31.747Z,5.53
2023-01-22T02:44:00.535Z,5.73
2023-01-22T02:46:30.712Z,6.50
2023-01-22T02:48:59.366Z,5.30
2023-01-22T02:51:27.907Z,6.37
2023-01-22T02:53:57.664Z,6.87
2023-01-22T02:56:26.305Z,6.40
2023-01-22T02:58:54.925Z,6.53
2023-01-22T03:01:25.286Z,7.33
2023-01-22T03:03:55.890Z,5.97
2023-01-22T03:06:26.613Z,4.90
2023-01-22T03:08:58.518Z,5.90
2023-01-22T03:11:29.532Z,6.50
2023-01-22T03:14:15.592Z,8.07
2023-01-22T03:17:02.603Z,7.97
2023-01-22T03:19:51.519Z,6.33
2023-01-22T03:22:20.384Z,7.90
2023-01-22T03:24:53.042Z,7.97
2023-01-22T03:27:23.054Z,9.40
2023-01-22T03:29:52.349Z,9.40
2023-01-22T03:32:21.391Z,8.77
2023-01-22T03:34:50.053Z,9.27
2023-01-22T03:37:18.543Z,9.50
2023-01-22T03:39:46.914Z,8.83
2023-01-22T03:42:16.585Z,8.40
2023-01-22T03:44:45.381Z,7.67
2023-01-22T03:47:14.073Z,8.97
2023-01-22T03:49:42.761Z,8.40
2023-01-22T03:52:11.248Z,7.77
2023-01-22T03:54:40.170Z,8.00
2023-01-22T03:57:14.720Z,7.53
2023-01-22T03:59:45.272Z,7.77
2023-01-22T04:02:14.079Z,8.10
2023-01-22T04:04:45.821Z,8.67
2023-01-22T04:07:14.378Z,8.87
2023-01-22T04:09:42.958Z,7.93
2023-01-22T04:12:11.860Z,7.70
2023-01-22T04:14:40.495Z,8.70
2023-01-22T04:17:10.450Z,6.80
2023-01-22T04:19:39.042Z,7.00
2023-01-22T04:22:07.685Z,6.23
2023-01-22T04:24:36.541Z,7.13
2023-01-22T04:27:05.281Z,9.17
2023-01-22T04:29:33.811Z,8.47
2023-01-22T04:32:02.338Z,7.23
2023-01-22T04:34:32.394Z,7.50
2023-01-22T04:37:00.851Z,9.97
2023-01-22T04:39:29.563Z,9.00
2023-01-22T04:41:58.264Z,9.20
2023-01-22T04:44:26.947Z,10.80
2023-01-22T04:46:55.593Z,10.40
2023-01-22T04:49:29.022Z,10.30
2023-01-22T04:51:59.576Z,10.13
2023-01-22T04:54:28.319Z,9.00
2023-01-22T04:56:56.835Z,8.30
2023-01-22T04:59:30.588Z,7.47
2023-01-22T05:01:59.294Z,8.73
2023-01-22T05:04:27.486Z,11.13
2023-01-22T05:06:56.159Z,10.70
2023-01-22T05:09:27.864Z,10.57
2023-01-22T05:11:56.773Z,11.30
2023-01-22T05:14:25.328Z,9.70
2023-01-22T05:16:56.761Z,10.80
2023-01-22T05:19:26.308Z,12.30
2023-01-22T05:21:54.858Z,10.60
2023-01-22T05:24:23.408Z,9.47
2023-01-22T05:26:53.338Z,10.17
2023-01-22T05:29:25.849Z,10.80
2023-01-22T05:31:54.843Z,10.53
2023-01-22T05:34:23.559Z,11.67
2023-01-22T05:36:51.977Z,11.17
2023-01-22T05:39:23.064Z,11.47
2023-01-22T05:41:53.780Z,11.33
2023-01-22T05:44:22.541Z,11.73
2023-01-22T05:46:59.867Z,10.80
2023-01-22T05:49:28.333Z,9.20
2023-01-22T05:51:56.824Z,10.40
2023-01-22T05:54:25.592Z,10.90
2023-01-22T05:56:55.631Z,10.67
2023-01-22T05:59:49.608Z,8.73
2023-01-22T06:02:18.276Z,10.40
2023-01-22T06:04:47.051Z,8.63
2023-01-22T06:07:15.896Z,9.57
2023-01-22T06:09:44.581Z,10.30
2023-01-22T06:12:16.093Z,11.33
2023-01-22T06:14:44.660Z,9.60
2023-01-22T06:17:13.495Z,9.97
2023-01-22T06:19:41.882Z,10.37
2023-01-22T06:22:10.417Z,11.27
2023-01-22T06:24:38.714Z,10.07
2023-01-22T06:27:07.475Z,9.80
2023-01-22T06:29:39.854Z,10.40
2023-01-22T06:32:09.208Z,8.90
2023-01-22T06:34:38.519Z,10.50
2023-01-22T06:37:07.161Z,9.83
2023-01-22T06:39:39.163Z,10.97
2023-01-22T06:42:08.668Z,11.50
2023-01-22T06:44:41.239Z,11.00
2023-01-22T06:47:09.588Z,9.67
2023-01-22T06:49:37.913Z,11.83
2023-01-22T06:52:07.466Z,12.50
2023-01-22T06:54:38.988Z,12.80
2023-01-22T06:57:08.032Z,11.93
2023-01-22T06:59:37.298Z,11.90
2023-01-22T07:02:07.461Z,11.37
2023-01-22T07:04:36.039Z,11.80
2023-01-22T07:07:04.468Z,10.50
2023-01-22T07:09:32.971Z,13.73
2023-01-22T07:12:02.268Z,12.97
2023-01-22T07:14:36.729Z,13.33
2023-01-22T07:17:07.352Z,10.87
2023-01-22T07:19:36.368Z,11.80
2023-01-22T07:22:05.013Z,13.30
2023-01-22T07:24:33.400Z,12.30
2023-01-22T07:27:03.146Z,11.77
2023-01-22T07:29:31.934Z,12.57
2023-01-22T07:32:00.511Z,13.40
2023-01-22T07:34:30.715Z,15.00
2023-01-22T07:37:02.086Z,12.57
2023-01-22T07:39:31.721Z,12.97
2023-01-22T07:42:02.522Z,11.17
2023-01-22T07:44:31.524Z,11.57
2023-01-22T07:47:08.180Z,11.70
2023-01-22T07:49:40.279Z,11.53
2023-01-22T07:52:08.711Z,12.40
2023-01-22T07:54:39.812Z,12.50
2023-01-22T07:57:08.579Z,10.70
2023-01-22T07:59:37.522Z,12.40
2023-01-22T08:02:06.236Z,11.80
2023-01-22T08:04:35.071Z,11.10
2023-01-22T08:07:05.278Z,13.60
2023-01-22T08:09:34.097Z,10.33
2023-01-22T08:12:03.011Z,11.13
2023-01-22T08:14:31.763Z,13.10
2023-01-22T08:17:00.728Z,11.40
2023-01-22T08:19:30.335Z,11.23
2023-01-22T08:21:59.163Z,13.83
2023-01-22T08:24:29.317Z,12.30
2023-01-22T08:26:58.003Z,12.47
2023-01-22T08:29:26.681Z,12.23
2023-01-22T08:31:55.045Z,11.60
2023-01-22T08:34:23.733Z,12.00
2023-01-22T08:36:52.232Z,11.00
2023-01-22T08:39:20.734Z,10.53
2023-01-22T08:41:52.498Z,8.93
2023-01-22T08:44:21.800Z,9.20
2023-01-22T08:46:51.058Z,10.40
2023-01-22T08:49:21.619Z,9.57
2023-01-22T08:51:51.102Z,9.60
2023-01-22T08:54:31.900Z,8.30
2023-01-22T08:57:02.360Z,9.23
2023-01-22T08:59:31.245Z,8.27
2023-01-22T09:02:00.238Z,8.40
2023-01-22T09:04:29.304Z,7.40
2023-01-22T09:06:57.921Z,8.20
2023-01-22T09:10:30.273Z,9.23
2023-01-22T09:13:02.937Z,8.33
2023-01-22T09:15:31.968Z,9.00
2023-01-22T09:18:01.408Z,8.13
2023-01-22T09:20:31.257Z,6.47
2023-01-22T09:22:59.819Z,9.70
2023-01-22T09:25:29.435Z,9.53
2023-01-22T09:28:05.234Z,6.80
2023-01-22T09:30:59.618Z,7.53
2023-01-22T09:33:29.035Z,6.90
2023-01-22T09:36:08.110Z,7.20
2023-01-22T09:38:39.705Z,7.93
2023-01-22T09:41:16.083Z,7.87
2023-01-22T09:43:51.197Z,6.70
2023-01-22T09:46:22.917Z,7.87
2023-01-22T09:48:54.966Z,7.40
2023-01-22T09:51:36.486Z,5.70
2023-01-22T09:54:07.777Z,8.10
2023-01-22T09:56:38.135Z,7.60
2023-01-22T09:59:11.805Z,7.77
2023-01-22T10:01:41.789Z,7.37
2023-01-22T10:04:23.048Z,6.67
2023-01-22T10:07:17.750Z,7.70
2023-01-22T10:09:51.309Z,7.90
2023-01-22T10:12:20.488Z,7.90
2023-01-22T10:15:02.611Z,7.50
2023-01-22T10:17:32.606Z,8.80
2023-01-22T10:20:05.131Z,5.87
2023-01-22T10:22:33.871Z,7.30
2023-01-22T10:25:02.759Z,7.00
2023-01-22T10:27:35.892Z,7.97
2023-01-22T10:30:10.698Z,6.70
2023-01-22T10:32:40.077Z,7.60
2023-01-22T10:35:22.839Z,6.47
2023-01-22T10:37:54.140Z,7.83
2023-01-22T10:40:31.148Z,8.00
2023-01-22T10:43:05.733Z,7.67
2023-01-22T10:45:36.198Z,8.60
2023-01-22T10:48:07.051Z,7.63
2023-01-22T10:50:35.511Z,9.83
2023-01-22T10:53:04.835Z,9.87
2023-01-22T10:55:34.519Z,8.73
2023-01-22T10:58:05.392Z,7.77
2023-01-22T11:00:51.578Z,8.30
2023-01-22T11:03:24.004Z,7.10
2023-01-22T11:05:56.347Z,7.70
2023-01-22T11:08:29.578Z,7.70
2023-01-22T11:11:00.853Z,7.20
2023-01-22T11:13:36.587Z,7.37
2023-01-22T11:16:11.198Z,8.50
2023-01-22T11:18:45.421Z,8.50
2023-01-22T11:21:16.834Z,7.70
2023-01-22T11:23:51.057Z,8.80
2023-01-22T11:26:27.670Z,9.20
2023-01-22T11:29:10.317Z,8.60
2023-01-22T11:31:52.122Z,7.30
2023-01-22T11:34:54.145Z,8.07
2023-01-22T11:37:26.570Z,6.00
2023-01-22T11:40:04.600Z,6.67
2023-01-22T11:42:47.970Z,7.93
2023-01-22T11:45:31.277Z,7.70
2023-01-22T11:48:13.387Z,8.30
2023-01-22T11:50:45.924Z,9.40
2023-01-22T11:53:31.607Z,7.27
2023-01-22T11:56:23.331Z,7.97
2023-01-22T11:58:55.568Z,8.90
2023-01-22T12:01:33.048Z,8.33
2023-01-22T12:04:35.158Z,8.10
2023-01-22T12:07:51.672Z,8.63
2023-01-22T12:10:40.938Z,8.67
2023-01-22T12:13:21.661Z,6.63
2023-01-22T12:15:57.687Z,7.30
2023-01-22T12:19:05.861Z,7.50
2023-01-22T12:21:46.197Z,8.50
2023-01-22T12:24:20.134Z,8.37
2023-01-22T12:26:53.864Z,8.23
2023-01-22T12:29:25.346Z,7.13
2023-01-22T12:31:57.344Z,7.23
2023-01-22T12:34:30.690Z,7.83
2023-01-22T12:37:02.457Z,7.37
2023-01-22T12:39:34.739Z,8.90
2023-01-22T12:42:15.562Z,11.80
2023-01-22T12:44:52.182Z,12.40
2023-01-22T12:47:33.427Z,11.53
2023-01-22T12:50:04.730Z,12.67
2023-01-22T12:52:37.409Z,10.37
2023-01-22T12:55:31.915Z,12.10
2023-01-22T12:58:00.879Z,9.77
2023-01-22T13:00:36.285Z,10.47
2023-01-22T13:03:06.536Z,11.07
2023-01-22T13:05:41.658Z,8.50
2023-01-22T13:08:26.891Z,8.30
2023-01-22T13:10:57.685Z,8.90
2023-01-22T13:13:31.426Z,9.03
2023-01-22T13:16:05.682Z,8.23
2023-01-22T13:18:37.356Z,7.60
2023-01-22T13:21:08.402Z,7.83
2023-01-22T13:23:46.396Z,8.20
2023-01-22T13:26:20.751Z,9.90
2023-01-22T13:28:55.508Z,7.87
2023-01-22T13:31:25.085Z,9.30
2023-01-22T13:33:59.041Z,9.23
2023-01-22T13:36:29.099Z,8.80
2023-01-22T13:39:00.737Z,9.30
2023-01-22T13:41:32.608Z,8.83
2023-01-22T13:44:01.431Z,10.50
2023-01-22T13:46:33.173Z,7.33
2023-01-22T13:49:07.694Z,10.37
2023-01-22T13:51:36.736Z,11.13
2023-01-22T13:54:08.502Z,11.23
2023-01-22T13:56:37.289Z,8.03
2023-01-22T13:59:18.963Z,8.40
2023-01-22T14:02:00.718Z,9.50
2023-01-22T14:04:34.538Z,8.07
2023-01-22T14:07:03.456Z,8.60
2023-01-22T14:09:38.617Z,8.63
2023-01-22T14:12:18.284Z,9.90
2023-01-22T14:14:47.391Z,19.70
2023-01-22T14:17:26.625Z,18.87
2023-01-22T14:19:54.942Z,11.80
2023-01-22T14:22:24.007Z,8.03
2023-01-22T14:24:54.056Z,7.63
2023-01-22T14:27:23.646Z,6.53
2023-01-22T14:29:53.785Z,6.57
2023-01-22T14:32:23.700Z,8.00
2023-01-22T14:34:52.404Z,7.57
2023-01-22T14:37:35.381Z,7.50
2023-01-22T14:40:06.201Z,7.30
2023-01-22T14:42:39.342Z,7.90
2023-01-22T14:45:09.903Z,7.57
2023-01-22T14:47:38.651Z,6.93
2023-01-22T14:50:08.737Z,6.67
2023-01-22T14:52:38.729Z,6.63
2023-01-22T14:55:09.732Z,6.80
2023-01-22T14:57:38.498Z,6.47
2023-01-22T15:00:08.794Z,7.00
2023-01-22T15:02:40.134Z,6.80
2023-01-22T15:05:10.569Z,7.17
2023-01-22T15:07:39.889Z,5.60
2023-01-22T15:10:11.356Z,7.03
2023-01-22T15:12:41.105Z,6.77
2023-01-22T15:15:10.573Z,7.00
2023-01-22T15:17:46.142Z,8.00
2023-01-22T15:20:14.906Z,6.80
2023-01-22T15:22:43.398Z,7.67
2023-01-22T15:25:13.504Z,10.37
2023-01-22T15:27:42.267Z,6.60
2023-01-22T15:30:13.261Z,8.37
2023-01-22T15:32:44.213Z,10.13
2023-01-22T15:35:12.697Z,8.63
2023-01-22T15:37:43.345Z,8.57
2023-01-22T15:40:14.871Z,7.83
2023-01-22T15:42:43.595Z,11.17
2023-01-22T15:45:12.975Z,11.90
2023-01-22T15:47:52.887Z,8.60
2023-01-22T15:50:22.503Z,7.63
2023-01-22T15:53:01.824Z,7.37
2023-01-22T15:55:34.203Z,7.27
2023-01-22T15:58:06.299Z,6.97
2023-01-22T16:00:35.365Z,8.40
2023-01-22T16:03:04.441Z,8.47
2023-01-22T16:05:36.204Z,8.20
2023-01-22T16:08:05.384Z,10.13
2023-01-22T16:10:42.213Z,9.37
2023-01-22T16:13:14.048Z,8.70
2023-01-22T16:15:43.813Z,10.30
2023-01-22T16:18:15.753Z,12.03
2023-01-22T16:20:44.422Z,12.20
2023-01-22T16:23:15.683Z,13.03
2023-01-22T16:25:48.430Z,11.77
2023-01-22T16:28:17.645Z,10.43
2023-01-22T16:30:46.136Z,10.50
2023-01-22T16:33:19.951Z,9.43
2023-01-22T16:35:48.578Z,11.53
2023-01-22T16:38:17.286Z,11.07
2023-01-22T16:40:48.513Z,11.07
2023-01-22T16:43:16.969Z,10.37
2023-01-22T16:45:51.162Z,9.93
2023-01-22T16:48:22.923Z,10.80
2023-01-22T16:50:59.998Z,10.30
2023-01-22T16:53:32.005Z,10.10
2023-01-22T16:56:02.026Z,9.20
2023-01-22T16:58:32.213Z,10.00
2023-01-22T17:01:04.741Z,10.13
2023-01-22T17:03:34.029Z,11.50
2023-01-22T17:06:02.523Z,10.50
2023-01-22T17:08:31.670Z,9.30
2023-01-22T17:11:03.580Z,9.80
2023-01-22T17:13:32.719Z,10.00
2023-01-22T17:16:01.263Z,11.60
2023-01-22T17:18:29.996Z,11.47
2023-01-22T17:21:03.276Z,11.17
2023-01-22T17:23:32.687Z,11.53
2023-01-22T17:26:01.285Z,11.80
2023-01-22T17:29:30.975Z,12.77
2023-01-22T17:32:06.162Z,13.80
2023-01-22T17:34:35.725Z,14.03
2023-01-22T17:37:08.880Z,13.00
2023-01-22T17:39:37.540Z,13.60
2023-01-22T17:42:06.528Z,12.37
2023-01-22T17:44:35.584Z,10.67
2023-01-22T17:47:08.170Z,12.87
2023-01-22T17:49:36.820Z,13.73
2023-01-22T17:52:06.093Z,12.27
2023-01-22T17:54:37.068Z,10.90
2023-01-22T17:57:06.594Z,11.83
2023-01-22T17:59:35.641Z,9.03
2023-01-22T18:02:05.563Z,10.10
2023-01-22T18:04:37.793Z,12.73
2023-01-22T18:07:06.627Z,13.17
2023-01-22T18:09:35.209Z,15.77
2023-01-22T18:12:04.027Z,19.60
2023-01-22T18:14:34.310Z,18.07
2023-01-22T18:17:03.428Z,18.60
2023-01-22T18:19:34.118Z,20.23
2023-01-22T18:22:09.541Z,17.07
2023-01-22T18:24:38.598Z,14.27
2023-01-22T18:27:10.527Z,15.20
2023-01-22T18:29:39.535Z,14.73
2023-01-22T18:32:18.139Z,12.00
2023-01-22T18:34:48.379Z,13.60
2023-01-22T18:37:17.391Z,11.67
2023-01-22T18:39:46.004Z,13.10
2023-01-22T18:42:14.723Z,12.90
2023-01-22T18:44:43.515Z,11.20
2023-01-22T18:47:13.276Z,13.63
2023-01-22T18:49:44.384Z,15.03
2023-01-22T18:52:15.413Z,14.97
2023-01-22T18:54:46.999Z,18.00
2023-01-22T18:57:16.222Z,18.80
2023-01-22T18:59:44.894Z,15.63
2023-01-22T19:02:19.115Z,18.97
2023-01-22T19:04:52.260Z,17.33
2023-01-22T19:07:28.023Z,17.17
2023-01-22T19:09:57.232Z,18.33
2023-01-22T19:12:26.136Z,17.23
2023-01-22T19:14:54.956Z,16.53
2023-01-22T19:17:25.851Z,18.60
2023-01-22T19:19:54.733Z,16.17
2023-01-22T19:22:24.952Z,14.90
2023-01-22T19:24:53.657Z,16.97
2023-01-22T19:27:22.590Z,17.23
2023-01-22T19:30:18.696Z,15.80
2023-01-22T19:32:47.959Z,16.97
2023-01-22T19:35:17.235Z,18.20
2023-01-22T19:37:47.655Z,16.13
2023-01-22T19:40:19.957Z,17.47
2023-01-22T19:42:49.471Z,16.47
2023-01-22T19:45:18.821Z,16.07
2023-01-22T19:47:47.633Z,16.20
2023-01-22T19:50:16.967Z,16.00
2023-01-22T19:52:49.707Z,18.07
2023-01-22T19:55:20.120Z,17.10
2023-01-22T19:57:49.321Z,17.40
2023-01-22T20:00:19.089Z,17.03
2023-01-22T20:02:48.163Z,13.07
2023-01-22T20:05:17.978Z,15.50
2023-01-22T20:07:46.928Z,15.53
2023-01-22T20:10:19.392Z,17.03
2023-01-22T20:13:21.743Z,15.80
2023-01-22T20:15:50.689Z,15.07
2023-01-22T20:18:19.816Z,15.30
2023-01-22T20:20:53.721Z,16.27
2023-01-22T20:23:22.870Z,16.37
2023-01-22T20:25:53.151Z,15.27
2023-01-22T20:28:22.881Z,17.70
2023-01-22T20:31:01.898Z,14.80
2023-01-22T20:33:31.067Z,14.63
2023-01-22T20:36:02.151Z,15.90
2023-01-22T20:38:33.175Z,15.20
2023-01-22T20:41:04.953Z,14.47
2023-01-22T20:43:34.420Z,13.10
2023-01-22T20:46:06.774Z,13.00
2023-01-22T20:48:36.159Z,12.53
2023-01-22T20:51:05.634Z,12.50
2023-01-22T20:53:34.340Z,14.97
2023-01-22T20:56:06.041Z,13.77
2023-01-22T20:58:36.311Z,17.33
2023-01-22T21:01:06.523Z,19.33
2023-01-22T21:03:35.319Z,17.53
2023-01-22T21:06:30.199Z,19.20
2023-01-22T21:09:01.270Z,19.17
2023-01-22T21:11:33.050Z,18.10
2023-01-22T21:14:04.416Z,16.80
2023-01-22T21:16:35.448Z,16.20
2023-01-22T21:19:06.434Z,14.07
2023-01-22T21:21:36.170Z,15.50
2023-01-22T21:24:07.317Z,14.20
2023-01-22T21:26:38.654Z,16.13
2023-01-22T21:29:14.707Z,14.53
2023-01-22T21:31:43.505Z,15.50
2023-01-22T21:34:15.315Z,15.53
2023-01-22T21:36:45.350Z,13.50
2023-01-22T21:39:19.994Z,14.00
2023-01-22T21:41:50.234Z,15.53
2023-01-22T21:44:37.638Z,17.73
2023-01-22T21:47:09.943Z,15.10
2023-01-22T21:49:39.106Z,16.20
2023-01-22T21:52:17.118Z,15.53
2023-01-22T21:54:46.454Z,15.40
2023-01-22T21:57:17.868Z,13.17
2023-01-22T21:59:47.014Z,13.50
2023-01-22T22:02:16.769Z,12.90
2023-01-22T22:04:45.336Z,15.13
2023-01-22T22:08:04.116Z,18.70
2023-01-22T22:10:32.693Z,15.07
2023-01-22T22:13:05.524Z,17.17
2023-01-22T22:15:35.081Z,16.70
2023-01-22T22:18:19.114Z,16.70
2023-01-22T22:20:47.613Z,16.73
2023-01-22T22:23:21.176Z,17.20
2023-01-22T22:25:50.332Z,18.10
2023-01-22T22:28:20.287Z,16.63
2023-01-22T22:30:48.887Z,15.63
2023-01-22T22:33:17.744Z,15.57
2023-01-22T22:35:47.182Z,15.80
2023-01-22T22:38:16.501Z,16.30
2023-01-22T22:40:45.287Z,14.53
2023-01-22T22:43:15.948Z,16.90
2023-01-22T22:45:46.885Z,14.87
2023-01-22T22:48:15.679Z,15.03
2023-01-22T22:50:44.752Z,17.30
2023-01-22T22:53:14.148Z,17.50
2023-01-22T22:55:42.908Z,16.43
2023-01-22T22:58:11.555Z,19.47
2023-01-22T23:00:42.252Z,18.83
2023-01-22T23:03:12.629Z,16.47
2023-01-22T23:05:41.628Z,18.57
2023-01-22T23:08:18.398Z,18.10
2023-01-22T23:10:47.020Z,18.70
2023-01-22T23:13:15.519Z,16.23
2023-01-22T23:15:44.187Z,14.83
2023-01-22T23:18:14.663Z,17.93
2023-01-22T23:20:43.658Z,18.23
2023-01-22T23:23:12.415Z,19.80
2023-01-22T23:26:30.766Z,16.77
2023-01-22T23:29:02.378Z,17.60
2023-01-22T23:31:33.010Z,17.17
2023-01-22T23:34:03.805Z,17.40
2023-01-22T23:36:57.352Z,16.80
2023-01-22T23:39:28.048Z,16.10
2023-01-22T23:41:56.474Z,15.20
2023-01-22T23:44:25.164Z,14.60
2023-01-22T23:46:53.521Z,17.50
2023-01-22T23:49:23.744Z,18.40
2023-01-22T23:51:53.485Z,17.07
2023-01-22T23:54:22.197Z,18.03
2023-01-22T23:56:50.934Z,17.53
2023-01-22T23:59:20.116Z,16.57
